Urania — 3FZA2 — position and weather

sailwx.info

Track history (hours):
 
Tides and Currents Weather Stations Pressure Air Temp Water Temp Dewpoint Dewpoint Depression Visibility Wind Speed Wind Dir Waves Ship Positions

Urania

Last reported at 2014-Aug-21 03:33 UTC. Time now 2014-Aug-23 11:32 UTC.
Position N 24°36' E 066°56'.

Length 87 m; draft 4.5 m.

Type: Ship. MMSI: 370859000.

Date/timePositionNaut miles runAvg speedWind from/ knotsBaromVisibWave heightAir tempDewpointWater temp
2014-Aug-21 03:33N 24°36' E 066°56'13 0.8
2014-Aug-20 10:33N 24°49' E 066°59'0 0.0
2014-Aug-20 09:34N 24°49' E 066°59'0 0.0
2014-Aug-20 08:33N 24°49' E 066°59'0 0.0
2014-Aug-20 07:33N 24°49' E 066°59'0 0.0
2014-Aug-20 06:33N 24°49' E 066°59'0 0.1
2014-Aug-20 05:33N 24°49' E 066°59'4 4.1
2014-Aug-20 04:33N 24°44' E 066°58'0 0.1
2014-Aug-20 03:33N 24°44' E 066°58'7 0.3
2014-Aug-19 08:16N 24°44' E 066°51'0 0.0
2014-Aug-19 07:28N 24°44' E 066°51'0 0.0
2014-Aug-19 06:34N 24°44' E 066°51'0 0.0
2014-Aug-19 05:33N 24°44' E 066°51'0 0.0
2014-Aug-19 04:34N 24°44' E 066°51'0 0.0
2014-Aug-19 03:34N 24°44' E 066°51'  
Track history (hours):
 
Tides and Currents Weather Stations Pressure Air Temp Water Temp Dewpoint Dewpoint Depression Visibility Wind Speed Wind Dir Waves Ship Positions

Urania

Last reported at 2014-Aug-21 03:33 UTC. Time now 2014-Aug-23 11:32 UTC.
Position N 24°36' E 066°56'.

Length 87 m; draft 4.5 m.

Type: Ship. MMSI: 370859000.

Date/timePositionNaut miles runAvg speedWind from/ knotsBaromVisibWave heightAir tempDewpointWater temp
2014-Aug-21 03:33N 24°36' E 066°56'13 0.8
2014-Aug-20 10:33N 24°49' E 066°59'0 0.0
2014-Aug-20 09:34N 24°49' E 066°59'0 0.0
2014-Aug-20 08:33N 24°49' E 066°59'0 0.0
2014-Aug-20 07:33N 24°49' E 066°59'0 0.0
2014-Aug-20 06:33N 24°49' E 066°59'0 0.1
2014-Aug-20 05:33N 24°49' E 066°59'4 4.1
2014-Aug-20 04:33N 24°44' E 066°58'0 0.1
2014-Aug-20 03:33N 24°44' E 066°58'7 0.3
2014-Aug-19 08:16N 24°44' E 066°51'0 0.0
2014-Aug-19 07:28N 24°44' E 066°51'0 0.0
2014-Aug-19 06:34N 24°44' E 066°51'0 0.0
2014-Aug-19 05:33N 24°44' E 066°51'0 0.0
2014-Aug-19 04:34N 24°44' E 066°51'0 0.0
2014-Aug-19 03:34N 24°44' E 066°51'  

Dump ship's entire track history